Time;durP1;ratioP1;P1;durP2;ratioP2;P2;SDS_P1;SDS_P2;PMS_P1;PMS_P2;Temp;Humidity;BMP_temperature;BMP_pressure;BME280_temperature;BME280_humidity;BME280_pressure;Samples;Min_cycle;Max_cycle;Signal;HPM_P1;HPM_P2
2023/07/17 00:00:04;;;;;;;3.80;2.30;;;;;;;25.41;55.29;97649.84;5008872;28;20301;-28
2023/07/17 00:02:30;;;;;;;3.50;2.57;;;;;;;25.42;55.44;97637.81;5008271;28;20229;-31
2023/07/17 00:04:57;;;;;;;2.57;2.03;;;;;;;25.41;55.23;97642.13;5008924;28;20226;-29
2023/07/17 00:07:23;;;;;;;2.80;2.30;;;;;;;25.41;55.29;97643.81;5005253;28;20205;-27
2023/07/17 00:09:50;;;;;;;3.17;2.37;;;;;;;25.40;55.37;97650.66;4996341;28;20725;-27
2023/07/17 00:12:17;;;;;;;3.53;2.60;;;;;;;25.42;55.22;97645.53;5004569;28;20205;-27
2023/07/17 00:14:43;;;;;;;2.50;1.80;;;;;;;25.40;55.42;97635.22;5013799;28;20248;-34
2023/07/17 00:17:10;;;;;;;3.70;2.37;;;;;;;25.40;55.30;97614.63;4996223;28;20246;-27
2023/07/17 00:19:39;;;;;;;2.40;2.20;;;;;;;25.40;55.46;97614.63;5022121;28;20217;-27
2023/07/17 00:22:06;;;;;;;2.80;2.27;;;;;;;25.40;55.28;97606.91;4997926;28;20680;-27
2023/07/17 00:24:36;;;;;;;3.47;2.30;;;;;;;25.41;55.16;97600.06;5013308;28;20237;-30
2023/07/17 00:27:04;;;;;;;2.73;2.10;;;;;;;25.40;55.25;97596.63;5014750;28;20257;-27
2023/07/17 00:29:31;;;;;;;2.67;2.30;;;;;;;25.41;55.30;97600.06;5018466;28;20218;-28
2023/07/17 00:31:57;;;;;;;2.47;2.00;;;;;;;25.41;55.42;97611.25;5013075;28;20208;-27
2023/07/17 00:34:24;;;;;;;2.70;2.10;;;;;;;25.41;55.66;97616.38;5003937;28;20197;-31
2023/07/17 00:36:50;;;;;;;2.67;2.33;;;;;;;25.38;55.56;97610.31;5006129;28;20280;-27
2023/07/17 00:39:18;;;;;;;2.47;1.90;;;;;;;25.40;55.61;97614.63;5012081;28;20226;-27
2023/07/17 00:41:48;;;;;;;2.50;1.93;;;;;;;25.41;55.30;97613.81;5019832;28;20561;-27
2023/07/17 00:44:14;;;;;;;2.37;2.10;;;;;;;25.40;55.51;97619.78;5007187;28;20685;-27
2023/07/17 00:46:41;;;;;;;2.30;1.90;;;;;;;25.40;55.26;97616.38;5007006;28;20202;-27
2023/07/17 00:49:08;;;;;;;2.37;2.10;;;;;;;25.37;55.34;97622.31;4985815;28;20191;-27
2023/07/17 00:51:36;;;;;;;2.43;2.10;;;;;;;25.41;55.60;97636.97;4991130;28;20286;-27
2023/07/17 00:54:02;;;;;;;2.60;2.10;;;;;;;25.41;55.44;97657.56;4990154;28;20203;-27
2023/07/17 00:56:29;;;;;;;1.93;1.73;;;;;;;25.37;55.32;97653.19;5000001;28;20647;-27
2023/07/17 00:58:56;;;;;;;1.90;1.80;;;;;;;25.40;55.50;97654.97;4995128;28;20761;-28
2023/07/17 01:01:23;;;;;;;2.23;2.03;;;;;;;25.41;55.12;97652.41;5010635;28;20329;-27
2023/07/17 01:03:52;;;;;;;2.43;2.00;;;;;;;25.41;55.16;97654.97;4999867;28;20240;-28
2023/07/17 01:06:18;;;;;;;2.20;2.00;;;;;;;25.41;55.58;97656.69;4996436;28;20206;-27
2023/07/17 01:08:45;;;;;;;2.17;1.97;;;;;;;25.42;55.33;97668.69;5005627;28;20242;-27
2023/07/17 01:11:12;;;;;;;3.10;2.43;;;;;;;25.42;55.33;97655.81;5004450;28;20218;-32
2023/07/17 01:13:45;;;;;;;1.83;1.73;;;;;;;25.42;55.63;97654.13;5016888;28;20225;-27
2023/07/17 01:16:12;;;;;;;2.50;1.93;;;;;;;25.36;55.24;97637.72;4995642;28;20658;-27
2023/07/17 01:18:39;;;;;;;2.33;1.87;;;;;;;25.41;55.67;97636.09;5017916;28;20228;-27
2023/07/17 01:21:08;;;;;;;2.43;1.90;;;;;;;25.42;55.33;97642.97;4998683;28;20281;-27
2023/07/17 01:23:35;;;;;;;2.13;1.93;;;;;;;25.41;55.14;97643.81;4997262;28;20244;-27
2023/07/17 01:26:10;;;;;;;2.17;1.97;;;;;;;25.39;55.33;97633.50;5012974;28;20203;-27
2023/07/17 01:28:37;;;;;;;2.43;2.00;;;;;;;25.40;55.33;97635.22;4986086;28;20240;-27
2023/07/17 01:31:03;;;;;;;2.00;1.80;;;;;;;25.40;55.54;97635.22;5011293;28;20294;-27
2023/07/17 01:33:30;;;;;;;2.43;2.13;;;;;;;25.41;55.32;97636.09;5000105;28;20214;-31
2023/07/17 01:35:57;;;;;;;2.50;2.00;;;;;;;25.41;55.69;97636.09;5002610;28;20546;-27
2023/07/17 01:38:23;;;;;;;2.73;2.00;;;;;;;25.35;55.60;97629.16;5002830;28;20250;-27
2023/07/17 01:40:51;;;;;;;2.10;1.93;;;;;;;25.40;55.30;97648.09;5001912;28;20312;-27
2023/07/17 01:43:18;;;;;;;2.70;2.00;;;;;;;25.40;55.35;97648.09;5002762;28;20253;-27
2023/07/17 01:45:44;;;;;;;3.23;1.93;;;;;;;25.41;55.66;97639.53;5015721;28;20265;-27
2023/07/17 01:48:11;;;;;;;1.93;1.80;;;;;;;25.41;55.43;97641.25;5010181;28;20191;-27
2023/07/17 01:50:37;;;;;;;2.20;2.00;;;;;;;25.42;55.45;97650.69;5005187;28;20219;-27
2023/07/17 01:53:04;;;;;;;2.07;1.80;;;;;;;25.41;55.30;97654.09;5010111;28;20281;-27
2023/07/17 01:55:31;;;;;;;2.13;1.93;;;;;;;25.42;55.59;97656.69;4994960;28;20207;-27
2023/07/17 01:57:57;;;;;;;2.30;2.07;;;;;;;25.40;55.56;97660.94;5012062;28;20266;-29
2023/07/17 02:00:24;;;;;;;2.77;2.00;;;;;;;25.37;55.65;97654.91;4985054;28;20253;-27
2023/07/17 02:02:51;;;;;;;2.17;1.97;;;;;;;25.40;55.79;97655.81;5001651;28;20286;-27
2023/07/17 02:05:17;;;;;;;2.60;1.90;;;;;;;25.41;55.48;97666.97;4999103;28;20207;-30
2023/07/17 02:07:44;;;;;;;2.53;1.77;;;;;;;25.42;55.81;97686.72;5003273;28;20552;-27
2023/07/17 02:10:11;;;;;;;2.60;1.80;;;;;;;25.42;55.37;97702.16;5006509;28;20363;-27
2023/07/17 02:12:37;;;;;;;2.17;1.97;;;;;;;25.42;55.58;97730.44;5008233;28;20202;-27
2023/07/17 02:15:06;;;;;;;2.30;2.10;;;;;;;25.42;55.34;97728.75;5004199;28;20399;-29
2023/07/17 02:17:32;;;;;;;2.03;1.87;;;;;;;25.43;55.66;97721.91;5019751;28;20206;-27
2023/07/17 02:19:59;;;;;;;2.17;1.80;;;;;;;25.43;55.45;97719.34;5015739;28;20728;-27
2023/07/17 02:22:27;;;;;;;2.07;1.87;;;;;;;25.43;55.38;97701.31;5007232;28;20299;-27
2023/07/17 02:24:54;;;;;;;2.03;1.77;;;;;;;25.40;55.45;97691.81;5006996;28;20209;-36
2023/07/17 02:27:21;;;;;;;1.80;1.70;;;;;;;25.43;55.45;97688.47;5003294;28;20202;-27
2023/07/17 02:29:47;;;;;;;2.73;1.87;;;;;;;25.43;55.71;97688.47;5013019;28;20233;-27
2023/07/17 02:32:14;;;;;;;2.10;1.83;;;;;;;25.43;55.58;97678.16;5000981;28;20210;-32
2023/07/17 02:34:41;;;;;;;2.10;1.90;;;;;;;25.41;55.83;97665.28;5010521;28;20232;-30
2023/07/17 02:37:10;;;;;;;2.13;1.93;;;;;;;25.41;55.66;97657.56;5003124;28;20199;-27
2023/07/17 02:39:37;;;;;;;2.27;1.70;;;;;;;25.43;55.26;97648.13;5001678;28;20226;-27
2023/07/17 02:42:04;;;;;;;1.70;1.60;;;;;;;25.44;55.35;97641.28;5011712;28;20605;-27
2023/07/17 02:44:31;;;;;;;1.80;1.70;;;;;;;25.44;55.40;97639.59;5002743;28;20202;-27
2023/07/17 02:46:57;;;;;;;1.90;1.80;;;;;;;25.44;55.72;97638.72;5010898;28;20703;-28
2023/07/17 02:49:24;;;;;;;1.90;1.80;;;;;;;25.45;55.46;97643.00;5012470;28;20234;-27
2023/07/17 02:51:50;;;;;;;2.20;2.00;;;;;;;25.39;55.76;97643.78;5003485;28;20688;-27
2023/07/17 02:54:17;;;;;;;2.17;1.63;;;;;;;25.44;55.88;97654.16;4997985;28;20290;-27
2023/07/17 02:56:43;;;;;;;2.00;1.80;;;;;;;25.45;55.72;97655.88;4992619;28;20205;-27
2023/07/17 02:59:10;;;;;;;2.33;1.80;;;;;;;25.44;55.56;97661.88;5017902;28;20228;-27
2023/07/17 03:01:36;;;;;;;2.67;2.07;;;;;;;25.44;55.54;97672.16;4987206;28;20698;-27
2023/07/17 03:04:03;;;;;;;1.70;1.60;;;;;;;25.44;55.58;97672.16;5009714;28;20205;-27
2023/07/17 03:06:30;;;;;;;1.70;1.60;;;;;;;25.44;55.63;97683.34;4993173;28;20195;-27
2023/07/17 03:08:56;;;;;;;1.80;1.70;;;;;;;25.44;55.73;97685.03;5001132;28;20191;-27
2023/07/17 03:11:23;;;;;;;1.60;1.50;;;;;;;25.44;55.57;97690.19;4993058;28;20710;-27
2023/07/17 03:13:49;;;;;;;1.77;1.67;;;;;;;25.43;55.59;97686.72;5002732;28;20293;-27
2023/07/17 03:16:16;;;;;;;1.70;1.60;;;;;;;25.44;55.76;97680.75;5000793;28;20241;-27
2023/07/17 03:18:43;;;;;;;1.90;1.73;;;;;;;25.44;55.74;97678.19;4995949;28;20231;-27
2023/07/17 03:21:09;;;;;;;1.87;1.73;;;;;;;25.43;55.91;97666.16;5000646;28;20630;-27
2023/07/17 03:23:36;;;;;;;1.83;1.67;;;;;;;25.44;55.49;97669.59;5001306;28;20231;-27
2023/07/17 03:26:03;;;;;;;2.13;1.50;;;;;;;25.44;55.53;97679.88;4999518;28;20201;-28
2023/07/17 03:28:29;;;;;;;1.80;1.70;;;;;;;25.44;55.99;97685.03;4997045;28;20210;-27
2023/07/17 03:30:56;;;;;;;1.90;1.80;;;;;;;25.43;55.67;97679.00;4999218;28;20646;-27
2023/07/17 03:33:23;;;;;;;1.70;1.60;;;;;;;25.43;55.65;97673.88;4999701;28;20232;-27
2023/07/17 03:35:49;;;;;;;1.83;1.60;;;;;;;25.38;55.55;97649.78;5003756;28;20575;-28
2023/07/17 03:38:16;;;;;;;1.87;1.70;;;;;;;25.44;55.89;97656.72;4999931;28;20705;-27
2023/07/17 03:40:42;;;;;;;1.60;1.50;;;;;;;25.43;56.00;97645.56;4998107;28;20262;-27
2023/07/17 03:43:09;;;;;;;1.80;1.70;;;;;;;25.43;55.69;97655.84;5009739;28;20236;-30
2023/07/17 03:45:36;;;;;;;1.90;1.70;;;;;;;25.44;56.06;97655.03;4991821;28;20202;-27
2023/07/17 03:48:02;;;;;;;2.07;1.70;;;;;;;25.43;55.59;97645.56;5007377;28;20237;-29
2023/07/17 03:50:30;;;;;;;1.90;1.60;;;;;;;25.39;55.57;97641.22;5002025;28;20272;-28
2023/07/17 03:52:56;;;;;;;1.60;1.50;;;;;;;25.44;55.82;97661.88;5000267;28;20818;-27
2023/07/17 03:55:23;;;;;;;1.83;1.70;;;;;;;25.44;55.99;97659.31;5007117;28;20203;-27
2023/07/17 03:57:49;;;;;;;1.93;1.50;;;;;;;25.44;55.65;97656.72;5002747;28;20233;-27
2023/07/17 04:00:16;;;;;;;1.73;1.50;;;;;;;25.43;55.98;97667.88;5014607;28;20226;-27
2023/07/17 04:02:43;;;;;;;1.70;1.60;;;;;;;25.43;55.59;97676.44;4997146;28;20261;-27
2023/07/17 04:05:10;;;;;;;1.70;1.57;;;;;;;25.43;56.11;97673.03;5002032;28;20202;-27
2023/07/17 04:07:37;;;;;;;1.80;1.67;;;;;;;25.44;55.93;97685.03;4997033;28;20234;-27
2023/07/17 04:10:03;;;;;;;1.70;1.60;;;;;;;25.43;55.75;97676.44;4999930;28;20293;-27
2023/07/17 04:12:30;;;;;;;1.80;1.70;;;;;;;25.44;55.66;97685.91;4998786;28;20418;-27
2023/07/17 04:14:56;;;;;;;1.70;1.60;;;;;;;25.44;55.84;97692.75;4999706;28;20199;-27
2023/07/17 04:17:23;;;;;;;1.80;1.70;;;;;;;25.43;56.06;97697.03;4993851;28;20856;-27
2023/07/17 04:19:50;;;;;;;1.50;1.40;;;;;;;25.45;55.85;97699.63;5004201;28;20234;-27
2023/07/17 04:22:16;;;;;;;1.60;1.50;;;;;;;25.45;55.60;97712.50;5003775;28;20285;-27
2023/07/17 04:24:43;;;;;;;1.53;1.43;;;;;;;25.44;55.93;97716.78;5000843;28;20696;-27
2023/07/17 04:27:09;;;;;;;1.73;1.60;;;;;;;25.44;55.88;97724.50;5007911;28;20633;-27
2023/07/17 04:29:36;;;;;;;1.83;1.63;;;;;;;25.44;56.00;97727.09;5003966;28;20272;-27
2023/07/17 04:32:03;;;;;;;2.10;1.60;;;;;;;25.40;56.03;97724.44;4996227;28;20286;-27
2023/07/17 04:34:30;;;;;;;2.40;1.73;;;;;;;25.43;55.96;97743.34;5007916;28;20656;-27
2023/07/17 04:36:57;;;;;;;1.60;1.50;;;;;;;25.44;55.99;97739.06;5006995;28;20202;-27
2023/07/17 04:39:24;;;;;;;1.70;1.60;;;;;;;25.43;55.58;97742.50;5011152;28;21457;-28
2023/07/17 04:41:52;;;;;;;1.53;1.43;;;;;;;25.44;56.09;97757.97;5000977;28;20282;-27
2023/07/17 04:44:18;;;;;;;1.60;1.50;;;;;;;25.39;55.75;97751.88;5005842;28;20210;-27
2023/07/17 04:46:45;;;;;;;1.67;1.53;;;;;;;25.43;55.50;97757.94;5005346;28;20203;-27
2023/07/17 04:49:12;;;;;;;1.97;1.80;;;;;;;25.46;56.25;97779.44;4991821;28;20252;-27
2023/07/17 04:51:38;;;;;;;2.57;1.90;;;;;;;25.46;57.42;97801.75;5004806;28;20202;-27
2023/07/17 04:54:05;;;;;;;2.87;2.13;;;;;;;25.47;57.31;97808.59;5008493;28;20253;-27
2023/07/17 04:56:31;;;;;;;2.77;2.30;;;;;;;25.46;57.16;97784.56;5012446;28;20201;-27
2023/07/17 04:58:59;;;;;;;4.90;1.93;;;;;;;25.47;58.22;97770.00;5012479;28;20252;-27
2023/07/17 05:01:25;;;;;;;4.27;2.30;;;;;;;25.47;58.04;97772.59;4997856;28;20226;-27
2023/07/17 05:03:52;;;;;;;6.97;2.00;;;;;;;25.46;57.90;97783.72;4998633;28;20586;-27
2023/07/17 05:06:18;;;;;;;5.50;2.13;;;;;;;25.46;57.82;97800.00;4995162;28;20206;-27
2023/07/17 05:08:45;;;;;;;4.97;2.40;;;;;;;25.46;57.56;97804.31;5011117;28;20199;-27
2023/07/17 05:11:11;;;;;;;2.70;2.13;;;;;;;25.42;57.41;97789.63;4998913;28;20223;-27
2023/07/17 05:13:38;;;;;;;2.77;2.10;;;;;;;25.46;57.25;97792.28;5001559;28;20234;-27
2023/07/17 05:16:05;;;;;;;2.27;1.93;;;;;;;25.44;57.02;97791.41;5007782;28;20206;-27
2023/07/17 05:18:31;;;;;;;3.33;2.10;;;;;;;25.44;56.93;97790.53;5003949;28;20674;-28
2023/07/17 05:20:58;;;;;;;6.57;1.90;;;;;;;25.44;57.21;97787.97;5014082;28;20292;-29
2023/07/17 05:23:24;;;;;;;4.70;2.07;;;;;;;25.43;57.23;97787.09;5012055;28;20210;-27
2023/07/17 05:25:56;;;;;;;2.80;2.10;;;;;;;25.44;57.11;97790.53;5004534;28;20704;-27
2023/07/17 05:28:24;;;;;;;3.73;2.00;;;;;;;25.43;57.16;97783.66;4998560;28;20264;-27
2023/07/17 05:30:52;;;;;;;3.30;2.17;;;;;;;25.45;57.10;97792.25;5006091;28;20268;-27
2023/07/17 05:33:19;;;;;;;2.10;1.90;;;;;;;25.43;56.94;97789.66;5003164;28;20704;-27
2023/07/17 05:35:45;;;;;;;2.67;2.17;;;;;;;25.44;56.85;97790.53;5005690;28;20202;-27
2023/07/17 05:38:12;;;;;;;2.40;2.20;;;;;;;25.44;56.72;97801.72;5010236;28;20229;-33
2023/07/17 05:40:40;;;;;;;5.73;1.90;;;;;;;25.44;56.48;97798.25;4997278;28;20696;-29
2023/07/17 05:43:07;;;;;;;5.70;2.10;;;;;;;25.44;56.93;97805.97;5005717;28;20582;-27
2023/07/17 05:45:34;;;;;;;3.20;2.00;;;;;;;25.46;56.70;97817.19;5004207;28;20226;-36
2023/07/17 05:48:01;;;;;;;2.20;2.00;;;;;;;25.45;56.77;97829.16;4996232;28;20231;-30
2023/07/17 05:50:27;;;;;;;2.90;1.83;;;;;;;25.45;56.69;97831.75;5003125;28;20229;-27
2023/07/17 05:52:54;;;;;;;2.20;1.80;;;;;;;25.45;56.77;97818.88;5001877;28;20202;-27
2023/07/17 05:55:20;;;;;;;2.27;1.83;;;;;;;25.45;56.53;97825.72;5005136;28;20199;-27
2023/07/17 05:57:47;;;;;;;2.47;2.07;;;;;;;25.45;56.76;97828.28;5006536;28;20301;-27
2023/07/17 06:00:14;;;;;;;2.10;1.90;;;;;;;25.47;56.51;97842.06;5005097;28;20289;-27
2023/07/17 06:02:42;;;;;;;2.13;1.93;;;;;;;25.46;56.37;97830.06;5013787;28;20585;-27
2023/07/17 06:05:10;;;;;;;3.03;2.07;;;;;;;25.46;56.31;97830.06;5004133;28;20203;-32
2023/07/17 06:07:37;;;;;;;1.77;1.60;;;;;;;25.46;56.52;97836.03;5002256;28;20202;-27
2023/07/17 06:10:05;;;;;;;1.63;1.53;;;;;;;25.46;56.66;97841.19;5011651;28;20624;-27
2023/07/17 06:12:32;;;;;;;2.53;1.90;;;;;;;25.46;56.53;97842.91;5003571;28;20606;-27
2023/07/17 06:14:58;;;;;;;2.73;2.17;;;;;;;25.44;56.43;97845.47;4998789;28;20230;-27
2023/07/17 06:17:25;;;;;;;1.90;1.80;;;;;;;25.43;56.15;97841.13;5010547;28;20628;-28
2023/07/17 06:19:51;;;;;;;2.30;1.70;;;;;;;25.44;56.52;97840.31;5002761;28;20394;-27
2023/07/17 06:22:18;;;;;;;2.27;1.87;;;;;;;25.43;56.43;97845.44;5002598;28;20203;-27
2023/07/17 06:24:45;;;;;;;1.80;1.70;;;;;;;25.45;56.43;97856.59;5003546;28;20199;-27
2023/07/17 06:27:12;;;;;;;2.13;1.80;;;;;;;25.43;56.45;97859.16;4999734;28;20207;-27
2023/07/17 06:29:39;;;;;;;2.70;2.03;;;;;;;25.44;56.43;97855.75;5009500;28;20253;-27
2023/07/17 06:32:06;;;;;;;2.13;1.93;;;;;;;25.42;56.15;97860.00;4998780;28;20705;-27
2023/07/17 06:34:32;;;;;;;2.33;2.10;;;;;;;25.42;56.06;97847.13;5005906;28;20209;-27
2023/07/17 06:37:00;;;;;;;2.03;1.83;;;;;;;25.43;56.28;97841.13;5006695;28;20261;-29
2023/07/17 06:39:27;;;;;;;2.10;1.90;;;;;;;25.39;56.16;97839.34;5001477;28;20639;-28
2023/07/17 06:41:53;;;;;;;2.13;1.90;;;;;;;25.43;56.17;97842.84;5003001;28;20336;-27
2023/07/17 06:44:20;;;;;;;2.17;1.97;;;;;;;25.43;56.08;97861.72;5005541;28;20261;-27
2023/07/17 06:46:46;;;;;;;2.33;1.60;;;;;;;25.42;56.32;97857.41;5008357;28;20206;-28
2023/07/17 06:49:13;;;;;;;1.90;1.70;;;;;;;25.44;56.16;97849.72;5006600;28;20647;-27
2023/07/17 06:51:40;;;;;;;2.57;1.67;;;;;;;25.43;56.33;97863.44;5008778;28;20716;-27
2023/07/17 06:54:07;;;;;;;2.13;1.70;;;;;;;25.42;56.50;97860.00;5001435;28;20277;-27
2023/07/17 06:56:33;;;;;;;1.70;1.60;;;;;;;25.44;56.07;97862.59;5007267;28;20209;-27
2023/07/17 06:59:00;;;;;;;1.67;1.50;;;;;;;25.43;56.30;97854.00;5005876;28;20199;-27
2023/07/17 07:01:27;;;;;;;2.50;1.83;;;;;;;25.42;56.40;97861.69;5009592;28;20655;-27
2023/07/17 07:03:53;;;;;;;2.03;1.67;;;;;;;25.43;55.88;97864.28;4999203;28;20203;-27
2023/07/17 07:06:20;;;;;;;1.70;1.60;;;;;;;25.43;56.11;97858.31;5005278;28;20237;-27
2023/07/17 07:08:47;;;;;;;1.97;1.80;;;;;;;25.43;56.09;97861.72;5012698;28;20955;-27
2023/07/17 07:11:13;;;;;;;1.83;1.63;;;;;;;25.43;56.21;97866.03;5018482;28;20257;-27
2023/07/17 07:13:42;;;;;;;2.03;1.83;;;;;;;25.43;56.06;97859.16;5009349;28;20203;-27
2023/07/17 07:16:12;;;;;;;1.90;1.70;;;;;;;25.44;56.12;97867.75;5014163;28;20206;-29
2023/07/17 07:18:38;;;;;;;2.83;1.77;;;;;;;25.41;55.83;97849.66;5000222;28;20614;-27
2023/07/17 07:21:05;;;;;;;1.80;1.70;;;;;;;25.44;56.04;97857.44;5015715;28;20299;-28
2023/07/17 07:23:32;;;;;;;1.80;1.60;;;;;;;25.43;56.32;97863.44;5009870;28;20780;-27
2023/07/17 07:25:58;;;;;;;2.00;1.70;;;;;;;25.43;55.86;97854.00;5006598;28;20286;-27
2023/07/17 07:28:25;;;;;;;1.67;1.57;;;;;;;25.44;55.97;97867.75;5006347;28;20642;-27
2023/07/17 07:30:56;;;;;;;1.80;1.70;;;;;;;25.42;55.86;97870.28;5008527;28;20646;-29
2023/07/17 07:33:22;;;;;;;2.40;1.70;;;;;;;25.43;56.27;97868.59;5017572;28;20293;-27
2023/07/17 07:35:49;;;;;;;1.83;1.73;;;;;;;25.43;55.99;97853.16;5007472;28;20591;-33
2023/07/17 07:38:15;;;;;;;2.00;1.70;;;;;;;25.43;55.76;97861.72;5001635;28;20289;-29
2023/07/17 07:40:42;;;;;;;1.93;1.70;;;;;;;25.43;55.91;97866.88;5004501;28;20225;-27
2023/07/17 07:43:08;;;;;;;1.80;1.60;;;;;;;25.43;55.90;97863.44;5010086;28;20236;-27
2023/07/17 07:45:35;;;;;;;1.70;1.53;;;;;;;25.43;55.73;97855.72;5021415;28;20202;-27
2023/07/17 07:48:02;;;;;;;2.10;1.60;;;;;;;25.40;55.93;97848.78;5012594;28;20596;-29
2023/07/17 07:50:28;;;;;;;1.50;1.40;;;;;;;25.44;55.79;97860.91;5015985;28;20586;-27
2023/07/17 07:53:00;;;;;;;1.57;1.47;;;;;;;25.44;56.05;97872.88;4999854;28;20286;-28
2023/07/17 07:55:27;;;;;;;2.00;1.80;;;;;;;25.43;55.91;97866.88;5012435;28;20233;-27
2023/07/17 07:57:54;;;;;;;1.63;1.50;;;;;;;25.45;55.72;97869.47;5001141;28;20202;-27
2023/07/17 08:00:20;;;;;;;2.00;1.70;;;;;;;25.44;55.79;97880.59;4998496;28;20230;-27
2023/07/17 08:02:47;;;;;;;1.90;1.70;;;;;;;25.43;56.00;97879.72;5006490;28;20203;-27
2023/07/17 08:05:13;;;;;;;2.33;1.30;;;;;;;25.42;55.90;97869.41;5004790;28;20202;-28
2023/07/17 08:07:40;;;;;;;1.50;1.40;;;;;;;25.43;55.76;97877.16;5007217;28;20202;-27
2023/07/17 08:10:07;;;;;;;2.00;1.77;;;;;;;25.44;55.67;97878.91;5007898;28;20678;-27
2023/07/17 08:12:33;;;;;;;1.67;1.57;;;;;;;25.42;55.75;97878.00;4997985;28;20689;-27
2023/07/17 08:15:00;;;;;;;1.97;1.70;;;;;;;25.44;55.80;97878.03;4989415;28;20230;-27
2023/07/17 08:17:26;;;;;;;1.87;1.77;;;;;;;25.42;56.02;97880.59;4997295;28;20205;-27
2023/07/17 08:19:53;;;;;;;1.40;1.30;;;;;;;25.44;55.99;97885.75;4999059;28;20716;-27
2023/07/17 08:22:19;;;;;;;1.60;1.40;;;;;;;25.44;55.88;97888.34;5009934;28;20233;-27
2023/07/17 08:24:46;;;;;;;1.60;1.50;;;;;;;25.44;55.71;97891.78;5009286;28;20203;-27
2023/07/17 08:27:13;;;;;;;1.60;1.50;;;;;;;25.44;55.68;97898.63;5005950;28;20222;-27
2023/07/17 08:29:39;;;;;;;1.40;1.30;;;;;;;25.43;55.58;97884.88;4994228;28;20301;-27
2023/07/17 08:32:06;;;;;;;1.70;1.60;;;;;;;25.44;56.00;97889.22;5016644;28;20237;-27
2023/07/17 08:34:33;;;;;;;1.80;1.70;;;;;;;25.43;55.76;97886.59;5000490;28;20202;-27
2023/07/17 08:37:00;;;;;;;2.20;1.63;;;;;;;25.43;55.53;97896.91;5010891;28;20194;-27
2023/07/17 08:39:27;;;;;;;1.50;1.40;;;;;;;25.44;55.93;97896.06;5003239;28;20226;-27
2023/07/17 08:41:54;;;;;;;1.40;1.30;;;;;;;25.44;55.59;97893.47;4998296;28;20195;-27
2023/07/17 08:44:20;;;;;;;1.63;1.50;;;;;;;25.43;55.45;97886.59;5002621;28;20290;-29
2023/07/17 08:46:47;;;;;;;1.67;1.57;;;;;;;25.39;55.64;97880.53;5007922;28;20218;-27
2023/07/17 08:49:18;;;;;;;1.60;1.50;;;;;;;25.40;55.81;97881.41;4992890;28;20210;-33
2023/07/17 08:51:48;;;;;;;1.33;1.20;;;;;;;25.44;55.90;97888.34;5010928;28;20670;-27
2023/07/17 08:54:15;;;;;;;1.40;1.30;;;;;;;25.15;55.51;97849.13;4980829;28;20658;-28
2023/07/17 08:56:57;;;;;;;1.50;1.40;;;;;;;25.42;55.49;97898.59;5004919;28;20623;-27
2023/07/17 08:59:24;;;;;;;1.70;1.30;;;;;;;25.44;55.61;97894.34;4981736;28;20655;-34
2023/07/17 09:01:51;;;;;;;1.40;1.30;;;;;;;25.44;55.60;97890.91;4985304;28;20601;-27
2023/07/17 09:04:17;;;;;;;1.90;1.40;;;;;;;25.42;55.94;97884.84;4982156;28;20203;-27
2023/07/17 09:06:44;;;;;;;1.53;1.43;;;;;;;25.43;55.40;97890.03;4999368;28;20234;-27
2023/07/17 09:09:11;;;;;;;1.40;1.30;;;;;;;25.45;55.79;97897.78;5014063;28;20256;-27
2023/07/17 09:11:38;;;;;;;1.60;1.50;;;;;;;25.44;55.74;97888.34;5005388;28;20253;-27
2023/07/17 09:14:07;;;;;;;1.60;1.50;;;;;;;25.44;55.49;97890.91;5005029;28;20233;-27
2023/07/17 09:16:33;;;;;;;1.50;1.40;;;;;;;25.43;55.65;97892.59;4980022;28;20246;-27
2023/07/17 09:19:00;;;;;;;1.73;1.43;;;;;;;25.44;55.91;97896.06;5002190;28;20561;-27
2023/07/17 09:21:27;;;;;;;1.60;1.50;;;;;;;25.44;55.35;97890.91;4996661;28;20234;-27
2023/07/17 09:23:54;;;;;;;1.40;1.30;;;;;;;25.42;55.39;97890.00;5010626;28;20245;-27
2023/07/17 09:26:22;;;;;;;1.43;1.33;;;;;;;25.44;55.63;97896.06;5014324;28;20242;-27
2023/07/17 09:28:50;;;;;;;1.40;1.30;;;;;;;25.44;55.61;97883.19;5002262;28;20195;-27
2023/07/17 09:31:27;;;;;;;1.57;1.47;;;;;;;25.44;55.83;97878.91;5006617;28;20222;-27
2023/07/17 09:33:58;;;;;;;2.13;1.50;;;;;;;25.45;55.80;97874.63;5005197;28;20197;-27
2023/07/17 09:36:24;;;;;;;2.27;1.97;;;;;;;25.47;56.28;97896.13;5013853;28;20241;-27
2023/07/17 09:38:55;;;;;;;3.10;1.63;;;;;;;25.44;55.52;97878.91;4999878;28;20234;-32
2023/07/17 09:41:26;;;;;;;3.27;1.90;;;;;;;25.44;56.70;97873.78;4992814;28;20230;-27
2023/07/17 09:43:53;;;;;;;2.40;2.10;;;;;;;25.48;56.76;97884.97;5002507;28;20203;-27
2023/07/17 09:46:20;;;;;;;1.93;1.80;;;;;;;25.47;56.66;97880.66;4999296;28;20284;-27
2023/07/17 09:48:47;;;;;;;2.07;1.87;;;;;;;25.48;56.37;97879.81;4991636;28;20206;-27
2023/07/17 09:51:13;;;;;;;2.13;1.70;;;;;;;25.47;56.52;97881.56;4976568;28;20226;-27
2023/07/17 09:53:41;;;;;;;3.73;1.90;;;;;;;25.45;56.52;97878.06;4984679;28;20217;-27
2023/07/17 09:56:09;;;;;;;2.33;2.00;;;;;;;25.45;56.23;97882.34;4975102;28;20194;-28
2023/07/17 09:58:37;;;;;;;4.00;2.00;;;;;;;25.45;55.99;97877.19;5008707;28;20233;-30
2023/07/17 10:01:03;;;;;;;3.70;1.90;;;;;;;25.45;56.12;97878.06;4961677;28;20716;-31
2023/07/17 10:03:30;;;;;;;2.10;1.90;;;;;;;25.43;56.12;97872.00;4973087;28;20202;-27
2023/07/17 10:05:56;;;;;;;2.27;1.90;;;;;;;25.42;56.31;97874.56;4967303;28;20210;-27
2023/07/17 10:08:23;;;;;;;2.13;1.80;;;;;;;25.44;55.83;97872.88;4970741;28;20313;-27
2023/07/17 10:10:49;;;;;;;2.00;1.80;;;;;;;25.45;56.07;97869.47;4991108;28;20650;-31
2023/07/17 10:13:16;;;;;;;2.57;1.60;;;;;;;25.42;55.99;97867.72;5006961;28;20247;-30
2023/07/17 10:15:42;;;;;;;2.17;1.97;;;;;;;25.45;55.98;97872.03;4984114;28;20202;-27
2023/07/17 10:18:12;;;;;;;2.17;1.70;;;;;;;25.46;55.99;97886.66;5000515;28;20465;-27
2023/07/17 10:20:39;;;;;;;2.07;1.77;;;;;;;25.45;55.87;97875.50;5006553;28;20238;-28
2023/07/17 10:23:10;;;;;;;1.60;1.50;;;;;;;25.45;56.05;97866.91;5007149;28;20728;-27
2023/07/17 10:25:37;;;;;;;3.77;1.63;;;;;;;25.45;55.97;97865.19;5006202;28;20209;-27
2023/07/17 10:28:04;;;;;;;1.60;1.50;;;;;;;25.46;55.80;97868.66;5004328;28;20625;-27
2023/07/17 10:30:33;;;;;;;1.97;1.80;;;;;;;25.46;55.80;97856.63;5002435;28;20241;-28
2023/07/17 10:33:16;;;;;;;1.90;1.70;;;;;;;25.46;56.11;97858.34;4998073;28;20199;-27
2023/07/17 10:35:50;;;;;;;1.60;1.50;;;;;;;25.47;55.73;97868.69;5001345;28;20209;-27
2023/07/17 10:38:18;;;;;;;1.73;1.47;;;;;;;25.45;55.98;97860.06;5005323;28;20245;-27
2023/07/17 10:40:45;;;;;;;1.80;1.70;;;;;;;25.47;55.64;97857.50;4999364;28;20301;-27
2023/07/17 10:43:19;;;;;;;2.13;1.60;;;;;;;25.46;55.94;97858.34;4996200;28;20262;-29
2023/07/17 10:45:47;;;;;;;3.03;1.73;;;;;;;25.45;55.71;97847.19;5003327;28;20202;-27
2023/07/17 10:48:14;;;;;;;1.83;1.57;;;;;;;25.45;55.66;97854.91;5002931;28;20210;-34
2023/07/17 10:50:52;;;;;;;1.83;1.60;;;;;;;25.45;55.51;97851.44;4996857;28;20546;-27
2023/07/17 10:53:19;;;;;;;2.00;1.80;;;;;;;25.45;55.87;97846.31;5002740;28;20201;-27
2023/07/17 10:55:46;;;;;;;1.90;1.80;;;;;;;25.44;55.76;97854.88;5009302;28;20195;-28
2023/07/17 10:58:13;;;;;;;1.70;1.60;;;;;;;25.44;55.79;97853.19;5004445;28;20721;-27
2023/07/17 11:00:42;;;;;;;1.40;1.30;;;;;;;25.43;55.92;97848.84;4997847;28;20239;-27
2023/07/17 11:03:12;;;;;;;1.57;1.47;;;;;;;25.43;55.57;97845.44;5001187;28;20202;-32
2023/07/17 11:05:39;;;;;;;1.67;1.57;;;;;;;25.44;55.77;97850.59;5007573;28;20272;-27
2023/07/17 11:08:07;;;;;;;1.57;1.47;;;;;;;25.44;55.82;97842.00;5012873;28;20241;-27
2023/07/17 11:10:34;;;;;;;1.80;1.70;;;;;;;25.45;55.79;97852.34;5004020;28;20625;-27
2023/07/17 11:13:02;;;;;;;1.80;1.70;;;;;;;25.46;55.67;97848.06;5006900;28;20221;-28
2023/07/17 11:15:34;;;;;;;1.90;1.70;;;;;;;25.45;55.58;97839.47;5004908;28;20631;-27
2023/07/17 11:18:02;;;;;;;1.70;1.60;;;;;;;25.46;55.46;97841.19;4992098;28;20209;-27
2023/07/17 11:20:29;;;;;;;1.50;1.40;;;;;;;25.44;55.63;97835.16;5009705;28;20226;-27
2023/07/17 11:22:56;;;;;;;1.83;1.50;;;;;;;25.45;55.58;97826.59;5000473;28;20206;-27
2023/07/17 11:25:30;;;;;;;1.70;1.60;;;;;;;25.45;55.46;97821.44;5008074;28;20676;-27
2023/07/17 11:27:58;;;;;;;1.97;1.73;;;;;;;25.45;55.31;97818.88;4990529;28;20662;-27
2023/07/17 11:30:27;;;;;;;1.77;1.50;;;;;;;25.46;55.67;97815.44;4976170;28;20226;-27
2023/07/17 11:33:02;;;;;;;1.60;1.50;;;;;;;25.46;55.59;97809.47;5011566;28;20261;-27